sensor_id;sensor_type;location;lat;lon;timestamp;P1;durP1;ratioP1;P2;durP2;ratioP2
66189;SDS011;52992;52.084;5.412;2023-12-22T00:02:22;14.60;;;2.37;;
66189;SDS011;52992;52.084;5.412;2023-12-22T00:04:52;17.87;;;3.70;;
66189;SDS011;52992;52.084;5.412;2023-12-22T00:07:19;16.50;;;3.07;;
66189;SDS011;52992;52.084;5.412;2023-12-22T00:09:47;10.83;;;2.50;;
66189;SDS011;52992;52.084;5.412;2023-12-22T00:12:14;10.03;;;2.40;;
66189;SDS011;52992;52.084;5.412;2023-12-22T00:14:41;10.60;;;2.20;;
66189;SDS011;52992;52.084;5.412;2023-12-22T00:17:08;8.37;;;1.97;;
66189;SDS011;52992;52.084;5.412;2023-12-22T00:19:35;9.67;;;2.00;;
66189;SDS011;52992;52.084;5.412;2023-12-22T00:22:02;8.67;;;1.30;;
66189;SDS011;52992;52.084;5.412;2023-12-22T00:24:30;4.10;;;1.27;;
66189;SDS011;52992;52.084;5.412;2023-12-22T00:26:57;4.23;;;1.33;;
66189;SDS011;52992;52.084;5.412;2023-12-22T00:29:24;3.03;;;1.30;;
66189;SDS011;52992;52.084;5.412;2023-12-22T00:31:51;3.57;;;0.93;;
66189;SDS011;52992;52.084;5.412;2023-12-22T00:34:18;1.87;;;0.87;;
66189;SDS011;52992;52.084;5.412;2023-12-22T00:36:46;6.13;;;1.33;;
66189;SDS011;52992;52.084;5.412;2023-12-22T00:39:13;4.53;;;1.13;;
66189;SDS011;52992;52.084;5.412;2023-12-22T00:41:40;6.73;;;1.23;;
66189;SDS011;52992;52.084;5.412;2023-12-22T00:44:07;6.40;;;1.27;;
66189;SDS011;52992;52.084;5.412;2023-12-22T00:46:34;2.87;;;1.23;;
66189;SDS011;52992;52.084;5.412;2023-12-22T00:49:00;3.53;;;1.07;;
66189;SDS011;52992;52.084;5.412;2023-12-22T00:51:27;4.77;;;1.57;;
66189;SDS011;52992;52.084;5.412;2023-12-22T00:53:54;2.23;;;1.43;;
66189;SDS011;52992;52.084;5.412;2023-12-22T00:56:21;7.33;;;1.63;;
66189;SDS011;52992;52.084;5.412;2023-12-22T00:58:48;6.00;;;1.20;;
66189;SDS011;52992;52.084;5.412;2023-12-22T01:01:27;7.23;;;1.80;;
66189;SDS011;52992;52.084;5.412;2023-12-22T01:03:54;8.10;;;1.83;;
66189;SDS011;52992;52.084;5.412;2023-12-22T01:06:21;6.80;;;1.23;;
66189;SDS011;52992;52.084;5.412;2023-12-22T01:08:52;2.27;;;1.23;;
66189;SDS011;52992;52.084;5.412;2023-12-22T01:11:19;3.73;;;1.00;;
66189;SDS011;52992;52.084;5.412;2023-12-22T01:13:46;6.37;;;1.70;;
66189;SDS011;52992;52.084;5.412;2023-12-22T01:16:13;4.47;;;1.60;;
66189;SDS011;52992;52.084;5.412;2023-12-22T01:18:41;3.97;;;1.60;;
66189;SDS011;52992;52.084;5.412;2023-12-22T01:21:11;3.43;;;0.90;;
66189;SDS011;52992;52.084;5.412;2023-12-22T01:23:38;6.10;;;1.53;;
66189;SDS011;52992;52.084;5.412;2023-12-22T01:26:05;9.13;;;2.00;;
66189;SDS011;52992;52.084;5.412;2023-12-22T01:28:33;8.53;;;1.77;;
66189;SDS011;52992;52.084;5.412;2023-12-22T01:31:01;10.20;;;2.47;;
66189;SDS011;52992;52.084;5.412;2023-12-22T01:33:28;5.10;;;1.53;;
66189;SDS011;52992;52.084;5.412;2023-12-22T01:35:58;7.37;;;1.87;;
66189;SDS011;52992;52.084;5.412;2023-12-22T01:38:25;10.07;;;2.30;;
66189;SDS011;52992;52.084;5.412;2023-12-22T01:40:51;12.00;;;2.00;;
66189;SDS011;52992;52.084;5.412;2023-12-22T01:43:18;6.93;;;1.90;;
66189;SDS011;52992;52.084;5.412;2023-12-22T01:45:48;8.07;;;1.53;;
66189;SDS011;52992;52.084;5.412;2023-12-22T01:48:21;10.53;;;2.23;;
66189;SDS011;52992;52.084;5.412;2023-12-22T01:50:53;11.30;;;2.27;;
66189;SDS011;52992;52.084;5.412;2023-12-22T01:53:22;6.70;;;1.80;;
66189;SDS011;52992;52.084;5.412;2023-12-22T01:55:51;10.10;;;1.90;;
66189;SDS011;52992;52.084;5.412;2023-12-22T01:58:20;13.40;;;2.47;;
66189;SDS011;52992;52.084;5.412;2023-12-22T02:00:49;11.43;;;2.27;;
66189;SDS011;52992;52.084;5.412;2023-12-22T02:03:18;12.67;;;2.13;;
66189;SDS011;52992;52.084;5.412;2023-12-22T02:05:46;11.57;;;2.47;;
66189;SDS011;52992;52.084;5.412;2023-12-22T02:08:14;7.77;;;2.10;;
66189;SDS011;52992;52.084;5.412;2023-12-22T02:10:44;5.10;;;1.70;;
66189;SDS011;52992;52.084;5.412;2023-12-22T02:13:11;10.50;;;1.80;;
66189;SDS011;52992;52.084;5.412;2023-12-22T02:15:38;13.33;;;2.57;;
66189;SDS011;52992;52.084;5.412;2023-12-22T02:18:07;9.87;;;1.93;;
66189;SDS011;52992;52.084;5.412;2023-12-22T02:20:42;8.70;;;1.83;;
66189;SDS011;52992;52.084;5.412;2023-12-22T02:23:10;12.90;;;2.50;;
66189;SDS011;52992;52.084;5.412;2023-12-22T02:25:37;11.17;;;2.60;;
66189;SDS011;52992;52.084;5.412;2023-12-22T02:28:07;10.03;;;1.90;;
66189;SDS011;52992;52.084;5.412;2023-12-22T02:30:48;12.47;;;2.47;;
66189;SDS011;52992;52.084;5.412;2023-12-22T02:33:22;15.07;;;2.57;;
66189;SDS011;52992;52.084;5.412;2023-12-22T02:35:53;11.73;;;2.27;;
66189;SDS011;52992;52.084;5.412;2023-12-22T02:38:24;16.70;;;3.03;;
66189;SDS011;52992;52.084;5.412;2023-12-22T02:40:52;14.60;;;2.73;;
66189;SDS011;52992;52.084;5.412;2023-12-22T02:43:19;12.37;;;2.67;;
66189;SDS011;52992;52.084;5.412;2023-12-22T02:45:50;18.73;;;2.70;;
66189;SDS011;52992;52.084;5.412;2023-12-22T02:48:17;12.30;;;3.10;;
66189;SDS011;52992;52.084;5.412;2023-12-22T02:50:44;16.10;;;2.50;;
66189;SDS011;52992;52.084;5.412;2023-12-22T02:53:11;15.80;;;3.43;;
66189;SDS011;52992;52.084;5.412;2023-12-22T02:55:38;16.87;;;3.07;;
66189;SDS011;52992;52.084;5.412;2023-12-22T02:58:05;9.97;;;2.60;;
66189;SDS011;52992;52.084;5.412;2023-12-22T03:00:32;17.40;;;4.00;;
66189;SDS011;52992;52.084;5.412;2023-12-22T03:02:58;20.40;;;3.77;;
66189;SDS011;52992;52.084;5.412;2023-12-22T03:05:25;16.30;;;3.77;;
66189;SDS011;52992;52.084;5.412;2023-12-22T03:07:52;17.47;;;3.63;;
66189;SDS011;52992;52.084;5.412;2023-12-22T03:10:19;24.57;;;3.33;;
66189;SDS011;52992;52.084;5.412;2023-12-22T03:12:46;16.70;;;3.40;;
66189;SDS011;52992;52.084;5.412;2023-12-22T03:15:14;16.70;;;3.70;;
66189;SDS011;52992;52.084;5.412;2023-12-22T03:17:41;18.03;;;2.93;;
66189;SDS011;52992;52.084;5.412;2023-12-22T03:20:08;16.10;;;3.17;;
66189;SDS011;52992;52.084;5.412;2023-12-22T03:22:35;18.03;;;3.27;;
66189;SDS011;52992;52.084;5.412;2023-12-22T03:25:02;19.87;;;3.40;;
66189;SDS011;52992;52.084;5.412;2023-12-22T03:27:29;16.17;;;3.07;;
66189;SDS011;52992;52.084;5.412;2023-12-22T03:29:56;12.27;;;2.80;;
66189;SDS011;52992;52.084;5.412;2023-12-22T03:32:23;16.47;;;3.33;;
66189;SDS011;52992;52.084;5.412;2023-12-22T03:34:50;16.30;;;2.97;;
66189;SDS011;52992;52.084;5.412;2023-12-22T03:37:17;19.03;;;3.60;;
66189;SDS011;52992;52.084;5.412;2023-12-22T03:39:44;15.07;;;3.13;;
66189;SDS011;52992;52.084;5.412;2023-12-22T03:42:11;18.77;;;3.13;;
66189;SDS011;52992;52.084;5.412;2023-12-22T03:44:37;11.70;;;3.03;;
66189;SDS011;52992;52.084;5.412;2023-12-22T03:47:04;14.20;;;2.83;;
66189;SDS011;52992;52.084;5.412;2023-12-22T03:49:31;10.87;;;2.90;;
66189;SDS011;52992;52.084;5.412;2023-12-22T03:51:58;21.07;;;2.80;;
66189;SDS011;52992;52.084;5.412;2023-12-22T03:54:25;14.07;;;3.23;;
66189;SDS011;52992;52.084;5.412;2023-12-22T03:56:52;9.13;;;1.90;;
66189;SDS011;52992;52.084;5.412;2023-12-22T03:59:19;6.37;;;1.57;;
66189;SDS011;52992;52.084;5.412;2023-12-22T04:01:52;7.40;;;1.87;;
66189;SDS011;52992;52.084;5.412;2023-12-22T04:04:21;4.10;;;1.50;;
66189;SDS011;52992;52.084;5.412;2023-12-22T04:06:49;6.03;;;1.43;;
66189;SDS011;52992;52.084;5.412;2023-12-22T04:09:16;10.03;;;1.60;;
66189;SDS011;52992;52.084;5.412;2023-12-22T04:11:43;12.23;;;2.00;;
66189;SDS011;52992;52.084;5.412;2023-12-22T04:14:10;8.87;;;2.23;;
66189;SDS011;52992;52.084;5.412;2023-12-22T04:16:37;3.50;;;1.67;;
66189;SDS011;52992;52.084;5.412;2023-12-22T04:19:05;7.00;;;1.47;;
66189;SDS011;52992;52.084;5.412;2023-12-22T04:21:37;8.53;;;1.80;;
66189;SDS011;52992;52.084;5.412;2023-12-22T04:24:04;8.50;;;1.83;;
66189;SDS011;52992;52.084;5.412;2023-12-22T04:26:31;7.00;;;1.90;;
66189;SDS011;52992;52.084;5.412;2023-12-22T04:28:58;11.70;;;1.57;;
66189;SDS011;52992;52.084;5.412;2023-12-22T04:31:24;8.03;;;2.17;;
66189;SDS011;52992;52.084;5.412;2023-12-22T04:33:51;5.63;;;2.10;;
66189;SDS011;52992;52.084;5.412;2023-12-22T04:36:18;7.87;;;1.70;;
66189;SDS011;52992;52.084;5.412;2023-12-22T04:38:46;6.87;;;1.80;;
66189;SDS011;52992;52.084;5.412;2023-12-22T04:41:13;10.77;;;1.90;;
66189;SDS011;52992;52.084;5.412;2023-12-22T04:43:40;9.30;;;2.30;;
66189;SDS011;52992;52.084;5.412;2023-12-22T04:46:07;15.23;;;2.80;;
66189;SDS011;52992;52.084;5.412;2023-12-22T04:48:34;15.30;;;2.67;;
66189;SDS011;52992;52.084;5.412;2023-12-22T04:51:01;13.43;;;2.63;;
66189;SDS011;52992;52.084;5.412;2023-12-22T04:53:28;13.67;;;3.00;;
66189;SDS011;52992;52.084;5.412;2023-12-22T04:55:55;14.60;;;2.60;;
66189;SDS011;52992;52.084;5.412;2023-12-22T04:58:22;9.10;;;2.67;;
66189;SDS011;52992;52.084;5.412;2023-12-22T05:00:50;8.33;;;2.43;;
66189;SDS011;52992;52.084;5.412;2023-12-22T05:03:17;12.27;;;2.77;;
66189;SDS011;52992;52.084;5.412;2023-12-22T05:05:44;23.40;;;2.93;;
66189;SDS011;52992;52.084;5.412;2023-12-22T05:08:11;19.43;;;3.37;;
66189;SDS011;52992;52.084;5.412;2023-12-22T05:10:38;18.83;;;2.97;;
66189;SDS011;52992;52.084;5.412;2023-12-22T05:13:05;17.30;;;3.27;;
66189;SDS011;52992;52.084;5.412;2023-12-22T05:15:31;18.53;;;3.37;;
66189;SDS011;52992;52.084;5.412;2023-12-22T05:17:58;19.23;;;3.67;;
66189;SDS011;52992;52.084;5.412;2023-12-22T05:20:25;19.13;;;3.10;;
66189;SDS011;52992;52.084;5.412;2023-12-22T05:22:52;13.73;;;2.97;;
66189;SDS011;52992;52.084;5.412;2023-12-22T05:25:19;13.97;;;3.07;;
66189;SDS011;52992;52.084;5.412;2023-12-22T05:27:46;14.37;;;3.03;;
66189;SDS011;52992;52.084;5.412;2023-12-22T05:30:13;10.53;;;2.70;;
66189;SDS011;52992;52.084;5.412;2023-12-22T05:32:40;20.80;;;3.50;;
66189;SDS011;52992;52.084;5.412;2023-12-22T05:35:07;14.17;;;2.73;;
66189;SDS011;52992;52.084;5.412;2023-12-22T05:37:36;11.57;;;2.67;;
66189;SDS011;52992;52.084;5.412;2023-12-22T05:40:03;17.07;;;2.67;;
66189;SDS011;52992;52.084;5.412;2023-12-22T05:42:32;10.50;;;2.17;;
66189;SDS011;52992;52.084;5.412;2023-12-22T05:44:59;16.83;;;3.20;;
66189;SDS011;52992;52.084;5.412;2023-12-22T05:47:26;15.20;;;3.00;;
66189;SDS011;52992;52.084;5.412;2023-12-22T05:49:53;10.17;;;2.80;;
66189;SDS011;52992;52.084;5.412;2023-12-22T05:52:20;12.57;;;2.13;;
66189;SDS011;52992;52.084;5.412;2023-12-22T05:54:47;16.43;;;3.03;;
66189;SDS011;52992;52.084;5.412;2023-12-22T05:57:14;12.77;;;3.03;;
66189;SDS011;52992;52.084;5.412;2023-12-22T05:59:41;6.73;;;2.27;;
66189;SDS011;52992;52.084;5.412;2023-12-22T06:02:08;12.37;;;2.37;;
66189;SDS011;52992;52.084;5.412;2023-12-22T06:04:35;7.80;;;2.13;;
66189;SDS011;52992;52.084;5.412;2023-12-22T06:07:02;9.03;;;2.37;;
66189;SDS011;52992;52.084;5.412;2023-12-22T06:09:29;13.93;;;2.97;;
66189;SDS011;52992;52.084;5.412;2023-12-22T06:11:56;8.80;;;2.80;;
66189;SDS011;52992;52.084;5.412;2023-12-22T06:14:24;13.23;;;2.60;;
66189;SDS011;52992;52.084;5.412;2023-12-22T06:16:51;14.77;;;3.20;;
66189;SDS011;52992;52.084;5.412;2023-12-22T06:19:20;8.43;;;2.20;;
66189;SDS011;52992;52.084;5.412;2023-12-22T06:21:48;15.50;;;3.43;;
66189;SDS011;52992;52.084;5.412;2023-12-22T06:24:15;12.97;;;2.33;;
66189;SDS011;52992;52.084;5.412;2023-12-22T06:26:42;12.97;;;2.30;;
66189;SDS011;52992;52.084;5.412;2023-12-22T06:29:09;17.83;;;3.30;;
66189;SDS011;52992;52.084;5.412;2023-12-22T06:31:36;19.13;;;3.33;;
66189;SDS011;52992;52.084;5.412;2023-12-22T06:34:03;19.47;;;3.80;;
66189;SDS011;52992;52.084;5.412;2023-12-22T06:36:31;16.10;;;2.63;;
66189;SDS011;52992;52.084;5.412;2023-12-22T06:38:58;12.87;;;2.97;;
66189;SDS011;52992;52.084;5.412;2023-12-22T06:41:29;9.40;;;2.53;;
66189;SDS011;52992;52.084;5.412;2023-12-22T06:43:57;19.83;;;3.07;;
66189;SDS011;52992;52.084;5.412;2023-12-22T06:46:28;15.80;;;3.80;;
66189;SDS011;52992;52.084;5.412;2023-12-22T06:48:57;15.20;;;4.03;;
66189;SDS011;52992;52.084;5.412;2023-12-22T06:51:25;14.97;;;3.50;;
66189;SDS011;52992;52.084;5.412;2023-12-22T06:53:53;16.93;;;3.43;;
66189;SDS011;52992;52.084;5.412;2023-12-22T06:56:29;8.13;;;2.50;;
66189;SDS011;52992;52.084;5.412;2023-12-22T06:58:57;10.73;;;2.53;;
66189;SDS011;52992;52.084;5.412;2023-12-22T07:01:31;14.80;;;3.30;;
66189;SDS011;52992;52.084;5.412;2023-12-22T07:04:00;14.33;;;3.20;;
66189;SDS011;52992;52.084;5.412;2023-12-22T07:06:29;15.97;;;3.70;;
66189;SDS011;52992;52.084;5.412;2023-12-22T07:11:47;26.13;;;4.00;;
66189;SDS011;52992;52.084;5.412;2023-12-22T07:14:16;18.87;;;3.33;;
66189;SDS011;52992;52.084;5.412;2023-12-22T07:16:44;20.50;;;4.07;;
66189;SDS011;52992;52.084;5.412;2023-12-22T07:19:11;16.93;;;4.07;;
66189;SDS011;52992;52.084;5.412;2023-12-22T07:21:41;17.93;;;4.20;;
66189;SDS011;52992;52.084;5.412;2023-12-22T07:24:12;22.10;;;4.83;;
66189;SDS011;52992;52.084;5.412;2023-12-22T07:26:41;17.53;;;3.90;;
66189;SDS011;52992;52.084;5.412;2023-12-22T07:29:10;26.70;;;4.73;;
66189;SDS011;52992;52.084;5.412;2023-12-22T07:31:37;18.93;;;4.57;;
66189;SDS011;52992;52.084;5.412;2023-12-22T07:34:05;16.77;;;4.03;;
66189;SDS011;52992;52.084;5.412;2023-12-22T07:36:34;18.87;;;4.00;;
66189;SDS011;52992;52.084;5.412;2023-12-22T07:39:11;18.67;;;4.30;;
66189;SDS011;52992;52.084;5.412;2023-12-22T07:41:38;25.87;;;3.63;;
66189;SDS011;52992;52.084;5.412;2023-12-22T07:44:05;27.07;;;5.00;;
66189;SDS011;52992;52.084;5.412;2023-12-22T07:46:33;21.00;;;3.93;;
66189;SDS011;52992;52.084;5.412;2023-12-22T07:49:00;18.87;;;3.80;;
66189;SDS011;52992;52.084;5.412;2023-12-22T07:51:28;16.10;;;3.60;;
66189;SDS011;52992;52.084;5.412;2023-12-22T07:53:55;7.07;;;2.27;;
66189;SDS011;52992;52.084;5.412;2023-12-22T07:56:21;6.83;;;2.40;;
66189;SDS011;52992;52.084;5.412;2023-12-22T07:58:49;9.30;;;2.60;;
66189;SDS011;52992;52.084;5.412;2023-12-22T08:01:16;13.33;;;2.87;;
66189;SDS011;52992;52.084;5.412;2023-12-22T08:03:43;15.97;;;3.23;;
66189;SDS011;52992;52.084;5.412;2023-12-22T08:06:10;14.20;;;3.10;;
66189;SDS011;52992;52.084;5.412;2023-12-22T08:08:38;16.23;;;3.97;;
66189;SDS011;52992;52.084;5.412;2023-12-22T08:11:04;18.60;;;3.90;;
66189;SDS011;52992;52.084;5.412;2023-12-22T08:13:31;16.87;;;3.73;;
66189;SDS011;52992;52.084;5.412;2023-12-22T08:15:58;25.97;;;4.10;;
66189;SDS011;52992;52.084;5.412;2023-12-22T08:18:25;19.63;;;4.13;;
66189;SDS011;52992;52.084;5.412;2023-12-22T08:20:52;22.57;;;4.33;;
66189;SDS011;52992;52.084;5.412;2023-12-22T08:23:19;24.43;;;4.33;;
66189;SDS011;52992;52.084;5.412;2023-12-22T08:25:48;21.57;;;3.90;;
66189;SDS011;52992;52.084;5.412;2023-12-22T08:28:16;16.37;;;3.43;;
66189;SDS011;52992;52.084;5.412;2023-12-22T08:30:43;18.33;;;4.00;;
66189;SDS011;52992;52.084;5.412;2023-12-22T08:33:10;11.70;;;3.40;;
66189;SDS011;52992;52.084;5.412;2023-12-22T08:35:37;21.17;;;3.50;;
66189;SDS011;52992;52.084;5.412;2023-12-22T08:38:04;8.53;;;2.40;;
66189;SDS011;52992;52.084;5.412;2023-12-22T08:40:31;13.63;;;3.00;;
66189;SDS011;52992;52.084;5.412;2023-12-22T08:42:58;11.33;;;2.73;;
66189;SDS011;52992;52.084;5.412;2023-12-22T08:45:28;12.40;;;3.53;;
66189;SDS011;52992;52.084;5.412;2023-12-22T08:47:58;18.07;;;4.20;;
66189;SDS011;52992;52.084;5.412;2023-12-22T08:50:26;18.20;;;3.50;;
66189;SDS011;52992;52.084;5.412;2023-12-22T08:52:53;17.07;;;3.30;;
66189;SDS011;52992;52.084;5.412;2023-12-22T08:55:20;14.43;;;3.00;;
66189;SDS011;52992;52.084;5.412;2023-12-22T08:57:47;14.50;;;3.00;;
66189;SDS011;52992;52.084;5.412;2023-12-22T09:00:25;16.13;;;3.50;;
66189;SDS011;52992;52.084;5.412;2023-12-22T09:02:52;14.70;;;3.80;;
66189;SDS011;52992;52.084;5.412;2023-12-22T09:05:20;13.87;;;3.17;;
66189;SDS011;52992;52.084;5.412;2023-12-22T09:07:48;12.33;;;3.10;;
66189;SDS011;52992;52.084;5.412;2023-12-22T09:10:15;16.07;;;3.13;;
66189;SDS011;52992;52.084;5.412;2023-12-22T09:12:42;11.53;;;3.17;;
66189;SDS011;52992;52.084;5.412;2023-12-22T09:15:09;11.27;;;2.80;;
66189;SDS011;52992;52.084;5.412;2023-12-22T09:17:36;13.00;;;3.13;;
66189;SDS011;52992;52.084;5.412;2023-12-22T09:20:04;9.30;;;3.10;;
66189;SDS011;52992;52.084;5.412;2023-12-22T09:22:31;7.80;;;1.70;;
66189;SDS011;52992;52.084;5.412;2023-12-22T09:24:59;9.13;;;2.53;;
66189;SDS011;52992;52.084;5.412;2023-12-22T09:27:26;7.13;;;2.10;;
66189;SDS011;52992;52.084;5.412;2023-12-22T09:29:56;7.77;;;2.53;;
66189;SDS011;52992;52.084;5.412;2023-12-22T09:32:23;2.17;;;1.43;;
66189;SDS011;52992;52.084;5.412;2023-12-22T09:34:51;3.20;;;1.37;;
66189;SDS011;52992;52.084;5.412;2023-12-22T09:37:18;6.53;;;1.77;;
66189;SDS011;52992;52.084;5.412;2023-12-22T09:39:45;7.30;;;2.10;;
66189;SDS011;52992;52.084;5.412;2023-12-22T09:42:12;6.60;;;2.27;;
66189;SDS011;52992;52.084;5.412;2023-12-22T09:44:39;2.33;;;0.90;;
66189;SDS011;52992;52.084;5.412;2023-12-22T09:47:09;1.27;;;1.00;;
66189;SDS011;52992;52.084;5.412;2023-12-22T09:49:38;9.73;;;2.43;;
66189;SDS011;52992;52.084;5.412;2023-12-22T09:52:07;3.20;;;1.40;;
66189;SDS011;52992;52.084;5.412;2023-12-22T09:54:34;6.27;;;1.77;;
66189;SDS011;52992;52.084;5.412;2023-12-22T09:57:04;5.70;;;2.53;;
66189;SDS011;52992;52.084;5.412;2023-12-22T09:59:48;6.30;;;2.23;;
66189;SDS011;52992;52.084;5.412;2023-12-22T10:02:17;8.47;;;2.20;;
66189;SDS011;52992;52.084;5.412;2023-12-22T10:04:44;9.20;;;2.27;;
66189;SDS011;52992;52.084;5.412;2023-12-22T10:07:12;11.10;;;2.63;;
66189;SDS011;52992;52.084;5.412;2023-12-22T10:09:41;11.37;;;2.20;;
66189;SDS011;52992;52.084;5.412;2023-12-22T10:12:12;10.57;;;2.70;;
66189;SDS011;52992;52.084;5.412;2023-12-22T10:14:40;17.63;;;2.87;;
66189;SDS011;52992;52.084;5.412;2023-12-22T10:17:07;11.73;;;2.53;;
66189;SDS011;52992;52.084;5.412;2023-12-22T10:19:34;12.70;;;3.27;;
66189;SDS011;52992;52.084;5.412;2023-12-22T10:22:01;8.60;;;3.30;;
66189;SDS011;52992;52.084;5.412;2023-12-22T10:24:47;17.07;;;2.80;;
66189;SDS011;52992;52.084;5.412;2023-12-22T10:27:14;7.53;;;2.37;;
66189;SDS011;52992;52.084;5.412;2023-12-22T10:29:54;14.33;;;2.60;;
66189;SDS011;52992;52.084;5.412;2023-12-22T10:32:22;8.20;;;2.50;;
66189;SDS011;52992;52.084;5.412;2023-12-22T10:34:52;10.27;;;2.73;;
66189;SDS011;52992;52.084;5.412;2023-12-22T10:37:20;5.77;;;2.60;;
66189;SDS011;52992;52.084;5.412;2023-12-22T10:39:48;14.60;;;3.00;;
66189;SDS011;52992;52.084;5.412;2023-12-22T10:42:21;7.17;;;2.97;;
66189;SDS011;52992;52.084;5.412;2023-12-22T10:44:48;12.40;;;3.00;;
66189;SDS011;52992;52.084;5.412;2023-12-22T10:47:18;14.17;;;2.80;;
66189;SDS011;52992;52.084;5.412;2023-12-22T10:49:48;7.37;;;2.73;;
66189;SDS011;52992;52.084;5.412;2023-12-22T10:52:15;10.00;;;2.47;;
66189;SDS011;52992;52.084;5.412;2023-12-22T10:54:52;10.63;;;2.70;;
66189;SDS011;52992;52.084;5.412;2023-12-22T10:57:23;9.30;;;2.63;;
66189;SDS011;52992;52.084;5.412;2023-12-22T10:59:50;6.07;;;2.07;;
66189;SDS011;52992;52.084;5.412;2023-12-22T11:02:26;6.67;;;2.30;;
66189;SDS011;52992;52.084;5.412;2023-12-22T11:07:33;12.40;;;2.77;;
66189;SDS011;52992;52.084;5.412;2023-12-22T11:10:05;7.30;;;3.10;;
66189;SDS011;52992;52.084;5.412;2023-12-22T11:12:34;14.30;;;3.30;;
66189;SDS011;52992;52.084;5.412;2023-12-22T11:15:03;10.13;;;2.67;;
66189;SDS011;52992;52.084;5.412;2023-12-22T11:17:33;4.93;;;2.10;;
66189;SDS011;52992;52.084;5.412;2023-12-22T11:20:01;14.33;;;3.60;;
66189;SDS011;52992;52.084;5.412;2023-12-22T11:22:31;10.20;;;2.77;;
66189;SDS011;52992;52.084;5.412;2023-12-22T11:24:59;7.33;;;2.40;;
66189;SDS011;52992;52.084;5.412;2023-12-22T11:27:28;5.73;;;2.07;;
66189;SDS011;52992;52.084;5.412;2023-12-22T11:29:56;5.77;;;2.30;;
66189;SDS011;52992;52.084;5.412;2023-12-22T11:32:24;9.57;;;2.30;;
66189;SDS011;52992;52.084;5.412;2023-12-22T11:34:53;9.63;;;2.43;;
66189;SDS011;52992;52.084;5.412;2023-12-22T11:37:21;12.50;;;2.20;;
66189;SDS011;52992;52.084;5.412;2023-12-22T11:39:49;8.00;;;2.50;;
66189;SDS011;52992;52.084;5.412;2023-12-22T11:42:18;9.23;;;2.27;;
66189;SDS011;52992;52.084;5.412;2023-12-22T11:44:50;14.30;;;2.40;;
66189;SDS011;52992;52.084;5.412;2023-12-22T11:47:21;8.00;;;2.90;;
66189;SDS011;52992;52.084;5.412;2023-12-22T11:49:49;11.37;;;3.10;;
66189;SDS011;52992;52.084;5.412;2023-12-22T11:52:17;8.50;;;2.93;;
66189;SDS011;52992;52.084;5.412;2023-12-22T11:54:54;7.53;;;2.30;;
66189;SDS011;52992;52.084;5.412;2023-12-22T11:59:55;11.93;;;2.50;;
66189;SDS011;52992;52.084;5.412;2023-12-22T12:02:22;5.20;;;1.70;;
66189;SDS011;52992;52.084;5.412;2023-12-22T12:04:53;7.50;;;2.40;;
66189;SDS011;52992;52.084;5.412;2023-12-22T12:07:39;7.40;;;2.40;;
66189;SDS011;52992;52.084;5.412;2023-12-22T12:10:08;8.80;;;2.33;;
66189;SDS011;52992;52.084;5.412;2023-12-22T12:12:35;6.57;;;2.30;;
66189;SDS011;52992;52.084;5.412;2023-12-22T12:15:10;6.27;;;2.20;;
66189;SDS011;52992;52.084;5.412;2023-12-22T12:17:42;5.70;;;2.13;;
66189;SDS011;52992;52.084;5.412;2023-12-22T12:20:10;8.63;;;2.40;;
66189;SDS011;52992;52.084;5.412;2023-12-22T12:22:38;11.73;;;2.33;;
66189;SDS011;52992;52.084;5.412;2023-12-22T12:25:09;5.57;;;1.83;;
66189;SDS011;52992;52.084;5.412;2023-12-22T12:28:04;7.63;;;2.50;;
66189;SDS011;52992;52.084;5.412;2023-12-22T12:30:33;7.07;;;2.27;;
66189;SDS011;52992;52.084;5.412;2023-12-22T12:33:08;4.07;;;1.60;;
66189;SDS011;52992;52.084;5.412;2023-12-22T12:35:37;7.03;;;1.87;;
66189;SDS011;52992;52.084;5.412;2023-12-22T12:38:11;12.63;;;1.87;;
66189;SDS011;52992;52.084;5.412;2023-12-22T12:40:39;9.17;;;2.20;;
66189;SDS011;52992;52.084;5.412;2023-12-22T12:43:08;7.57;;;1.70;;
66189;SDS011;52992;52.084;5.412;2023-12-22T12:45:35;8.67;;;2.17;;
66189;SDS011;52992;52.084;5.412;2023-12-22T12:48:02;7.47;;;2.03;;
66189;SDS011;52992;52.084;5.412;2023-12-22T12:50:32;7.63;;;2.00;;
66189;SDS011;52992;52.084;5.412;2023-12-22T12:52:59;7.13;;;2.40;;
66189;SDS011;52992;52.084;5.412;2023-12-22T12:55:27;11.83;;;1.87;;
66189;SDS011;52992;52.084;5.412;2023-12-22T12:57:55;9.07;;;2.60;;
66189;SDS011;52992;52.084;5.412;2023-12-22T13:00:26;8.23;;;2.17;;
66189;SDS011;52992;52.084;5.412;2023-12-22T13:03:02;5.17;;;2.27;;
66189;SDS011;52992;52.084;5.412;2023-12-22T13:05:32;9.83;;;2.50;;
66189;SDS011;52992;52.084;5.412;2023-12-22T13:08:11;5.33;;;1.57;;
66189;SDS011;52992;52.084;5.412;2023-12-22T13:10:39;6.27;;;1.80;;
66189;SDS011;52992;52.084;5.412;2023-12-22T13:13:08;6.67;;;1.80;;
66189;SDS011;52992;52.084;5.412;2023-12-22T13:15:35;9.70;;;1.93;;
66189;SDS011;52992;52.084;5.412;2023-12-22T13:18:05;6.37;;;2.00;;
66189;SDS011;52992;52.084;5.412;2023-12-22T13:20:33;6.90;;;1.60;;
66189;SDS011;52992;52.084;5.412;2023-12-22T13:23:01;11.43;;;2.40;;
66189;SDS011;52992;52.084;5.412;2023-12-22T13:25:37;12.00;;;1.80;;
66189;SDS011;52992;52.084;5.412;2023-12-22T13:28:07;9.30;;;2.00;;
66189;SDS011;52992;52.084;5.412;2023-12-22T13:30:37;6.23;;;2.77;;
66189;SDS011;52992;52.084;5.412;2023-12-22T13:33:10;11.07;;;2.13;;
66189;SDS011;52992;52.084;5.412;2023-12-22T13:35:37;8.73;;;1.90;;
66189;SDS011;52992;52.084;5.412;2023-12-22T13:38:09;12.67;;;2.30;;
66189;SDS011;52992;52.084;5.412;2023-12-22T13:40:37;11.27;;;1.90;;
66189;SDS011;52992;52.084;5.412;2023-12-22T13:43:05;12.73;;;1.93;;
66189;SDS011;52992;52.084;5.412;2023-12-22T13:45:34;10.87;;;2.20;;
66189;SDS011;52992;52.084;5.412;2023-12-22T13:48:01;11.80;;;2.20;;
66189;SDS011;52992;52.084;5.412;2023-12-22T13:50:28;11.87;;;3.20;;
66189;SDS011;52992;52.084;5.412;2023-12-22T13:52:55;9.57;;;2.97;;
66189;SDS011;52992;52.084;5.412;2023-12-22T13:55:23;11.80;;;2.60;;
66189;SDS011;52992;52.084;5.412;2023-12-22T13:57:58;17.07;;;3.50;;
66189;SDS011;52992;52.084;5.412;2023-12-22T14:00:29;10.50;;;2.97;;
66189;SDS011;52992;52.084;5.412;2023-12-22T14:02:58;7.57;;;1.67;;
66189;SDS011;52992;52.084;5.412;2023-12-22T14:05:28;4.67;;;2.23;;
66189;SDS011;52992;52.084;5.412;2023-12-22T14:08:00;7.50;;;2.03;;
66189;SDS011;52992;52.084;5.412;2023-12-22T14:10:28;6.07;;;2.07;;
66189;SDS011;52992;52.084;5.412;2023-12-22T14:12:55;9.23;;;2.50;;
66189;SDS011;52992;52.084;5.412;2023-12-22T14:15:22;10.37;;;2.50;;
66189;SDS011;52992;52.084;5.412;2023-12-22T14:17:56;12.13;;;2.50;;
66189;SDS011;52992;52.084;5.412;2023-12-22T14:20:23;8.47;;;2.60;;
66189;SDS011;52992;52.084;5.412;2023-12-22T14:22:51;11.33;;;3.23;;
66189;SDS011;52992;52.084;5.412;2023-12-22T14:25:18;9.20;;;2.60;;
66189;SDS011;52992;52.084;5.412;2023-12-22T14:27:45;7.03;;;2.13;;
66189;SDS011;52992;52.084;5.412;2023-12-22T14:30:13;11.43;;;2.90;;
66189;SDS011;52992;52.084;5.412;2023-12-22T14:32:40;12.07;;;2.90;;
66189;SDS011;52992;52.084;5.412;2023-12-22T14:35:07;8.63;;;2.90;;
66189;SDS011;52992;52.084;5.412;2023-12-22T14:37:34;6.57;;;2.20;;
66189;SDS011;52992;52.084;5.412;2023-12-22T14:40:02;10.37;;;2.50;;
66189;SDS011;52992;52.084;5.412;2023-12-22T14:42:29;10.77;;;3.03;;
66189;SDS011;52992;52.084;5.412;2023-12-22T14:44:56;10.90;;;2.83;;
66189;SDS011;52992;52.084;5.412;2023-12-22T14:47:23;9.43;;;2.47;;
66189;SDS011;52992;52.084;5.412;2023-12-22T14:49:50;7.63;;;2.37;;
66189;SDS011;52992;52.084;5.412;2023-12-22T14:52:17;11.17;;;3.07;;
66189;SDS011;52992;52.084;5.412;2023-12-22T14:54:44;10.93;;;2.20;;
66189;SDS011;52992;52.084;5.412;2023-12-22T14:57:11;8.93;;;1.90;;